createdAt,value
2023-04-07T00:00:28.753Z,1021.78
2023-04-07T00:02:55.808Z,1021.78
2023-04-07T00:05:22.977Z,1021.78
2023-04-07T00:07:56.430Z,1021.75
2023-04-07T00:10:24.530Z,1021.75
2023-04-07T00:12:51.712Z,1021.81
2023-04-07T00:15:18.643Z,1021.83
2023-04-07T00:17:45.553Z,1021.84
2023-04-07T00:20:12.871Z,1021.81
2023-04-07T00:22:39.587Z,1021.81
2023-04-07T00:25:08.709Z,1021.83
2023-04-07T00:27:35.641Z,1021.89
2023-04-07T00:30:02.502Z,1021.93
2023-04-07T00:32:29.338Z,1021.82
2023-04-07T00:34:56.203Z,1021.95
2023-04-07T00:37:23.028Z,1021.95
2023-04-07T00:39:50.092Z,1021.91
2023-04-07T00:42:18.217Z,1021.78
2023-04-07T00:44:45.082Z,1021.81
2023-04-07T00:47:12.524Z,1021.85
2023-04-07T00:49:39.444Z,1021.86
2023-04-07T00:52:07.155Z,1021.93
2023-04-07T00:54:34.004Z,1021.90
2023-04-07T00:57:00.821Z,1021.80
2023-04-07T00:59:29.714Z,1021.84
2023-04-07T01:02:02.410Z,1021.83
2023-04-07T01:04:33.441Z,1021.97
2023-04-07T01:07:05.702Z,1022.23
2023-04-07T01:09:37.993Z,1022.09
2023-04-07T01:12:12.475Z,1021.88
2023-04-07T01:14:51.204Z,1021.77
2023-04-07T01:17:21.186Z,1021.76
2023-04-07T01:19:55.896Z,1021.63
2023-04-07T01:22:26.577Z,1021.59
2023-04-07T01:25:18.362Z,1021.57
2023-04-07T01:28:00.550Z,1021.55
2023-04-07T01:30:30.824Z,1021.47
2023-04-07T01:32:59.754Z,1021.47
2023-04-07T01:35:29.443Z,1021.47
2023-04-07T01:37:57.218Z,1021.55
2023-04-07T01:40:25.541Z,1021.55
2023-04-07T01:42:53.228Z,1021.68
2023-04-07T01:45:20.791Z,1021.75
2023-04-07T01:47:50.345Z,1021.61
2023-04-07T01:50:17.307Z,1021.47
2023-04-07T01:52:45.031Z,1021.66
2023-04-07T01:55:11.901Z,1021.65
2023-04-07T01:57:38.691Z,1021.69
2023-04-07T02:00:06.806Z,1021.65
2023-04-07T02:02:41.267Z,1021.65
2023-04-07T02:05:14.965Z,1021.55
2023-04-07T02:07:48.748Z,1021.43
2023-04-07T02:10:17.432Z,1021.47
2023-04-07T02:12:47.126Z,1021.57
2023-04-07T02:15:15.292Z,1021.57
2023-04-07T02:17:47.613Z,1021.60
2023-04-07T02:20:17.642Z,1021.59
2023-04-07T02:22:44.733Z,1021.55
2023-04-07T02:25:23.037Z,1021.57
2023-04-07T02:27:50.138Z,1021.45
2023-04-07T02:30:17.295Z,1021.66
2023-04-07T02:32:44.122Z,1021.65
2023-04-07T02:35:11.347Z,1021.78
2023-04-07T02:37:39.569Z,1021.72
2023-04-07T02:40:07.801Z,1021.54
2023-04-07T02:42:34.820Z,1021.55
2023-04-07T02:45:01.686Z,1021.57
2023-04-07T02:47:28.422Z,1021.51
2023-04-07T02:49:55.212Z,1021.49
2023-04-07T02:52:21.942Z,1021.51
2023-04-07T02:54:50.045Z,1021.63
2023-04-07T02:57:16.895Z,1021.65
2023-04-07T02:59:43.688Z,1021.64
2023-04-07T03:02:10.808Z,1021.62
2023-04-07T03:04:37.671Z,1021.60
2023-04-07T03:07:04.460Z,1021.62
2023-04-07T03:09:31.205Z,1021.58
2023-04-07T03:11:59.322Z,1021.52
2023-04-07T03:14:26.092Z,1021.46
2023-04-07T03:16:52.873Z,1021.37
2023-04-07T03:19:19.693Z,1021.39
2023-04-07T03:21:46.564Z,1021.30
2023-04-07T03:24:13.352Z,1021.38
2023-04-07T03:26:40.108Z,1021.35
2023-04-07T03:29:08.234Z,1021.39
2023-04-07T03:31:35.032Z,1021.47
2023-04-07T03:34:01.899Z,1021.47
2023-04-07T03:36:28.619Z,1021.39
2023-04-07T03:38:55.452Z,1021.34
2023-04-07T03:41:22.178Z,1021.39
2023-04-07T03:43:49.027Z,1021.31
2023-04-07T03:46:19.011Z,1021.29
2023-04-07T03:48:45.781Z,1021.26
2023-04-07T03:51:12.594Z,1021.21
2023-04-07T03:53:39.360Z,1021.34
2023-04-07T03:56:06.361Z,1021.43
2023-04-07T03:58:33.202Z,1021.44
2023-04-07T04:01:00.035Z,1021.36
2023-04-07T04:03:28.376Z,1021.48
2023-04-07T04:05:55.185Z,1021.41
2023-04-07T04:08:21.936Z,1021.42
2023-04-07T04:10:48.754Z,1021.41
2023-04-07T04:13:15.556Z,1021.44
2023-04-07T04:15:42.295Z,1021.39
2023-04-07T04:18:09.305Z,1021.48
2023-04-07T04:20:37.473Z,1021.44
2023-04-07T04:23:04.273Z,1021.61
2023-04-07T04:25:31.088Z,1021.57
2023-04-07T04:27:57.985Z,1021.50
2023-04-07T04:30:24.728Z,1021.47
2023-04-07T04:32:51.540Z,1021.44
2023-04-07T04:35:18.482Z,1021.47
2023-04-07T04:37:46.646Z,1021.52
2023-04-07T04:40:14.068Z,1021.42
2023-04-07T04:42:40.793Z,1021.53
2023-04-07T04:45:08.749Z,1021.63
2023-04-07T04:47:35.587Z,1021.68
2023-04-07T04:50:02.421Z,1021.60
2023-04-07T04:52:29.177Z,1021.62
2023-04-07T04:54:57.356Z,1021.57
2023-04-07T04:57:24.611Z,1021.53
2023-04-07T04:59:51.338Z,1021.53
2023-04-07T05:02:18.473Z,1021.52
2023-04-07T05:04:45.551Z,1021.41
2023-04-07T05:07:12.419Z,1021.41
2023-04-07T05:09:39.135Z,1021.43
2023-04-07T05:12:07.500Z,1021.33
2023-04-07T05:14:34.296Z,1021.37
2023-04-07T05:17:01.137Z,1021.25
2023-04-07T05:19:27.888Z,1021.33
2023-04-07T05:21:54.587Z,1021.32
2023-04-07T05:24:21.314Z,1021.30
2023-04-07T05:26:48.094Z,1021.25
2023-04-07T05:29:16.241Z,1021.27
2023-04-07T05:31:42.977Z,1021.28
2023-04-07T05:34:09.756Z,1021.24
2023-04-07T05:36:36.621Z,1021.18
2023-04-07T05:39:03.400Z,1021.24
2023-04-07T05:41:30.205Z,1021.19
2023-04-07T05:43:57.060Z,1021.13
2023-04-07T05:46:25.271Z,1021.17
2023-04-07T05:48:52.039Z,1021.16
2023-04-07T05:51:18.781Z,1021.18
2023-04-07T05:53:45.491Z,1021.11
2023-04-07T05:56:12.211Z,1021.11
2023-04-07T05:58:39.115Z,1021.10
2023-04-07T06:01:05.939Z,1021.10
2023-04-07T06:03:34.192Z,1020.79
2023-04-07T06:06:01.069Z,1020.34
2023-04-07T06:08:27.919Z,1020.13
2023-04-07T06:10:54.676Z,1019.82
2023-04-07T06:13:23.934Z,1019.40
2023-04-07T06:15:52.650Z,1019.11
2023-04-07T06:18:19.514Z,1018.99
2023-04-07T06:20:47.706Z,1018.74
2023-04-07T06:23:14.580Z,1018.52
2023-04-07T06:25:41.381Z,1018.51
2023-04-07T06:28:08.331Z,1018.27
2023-04-07T06:30:35.309Z,1018.09
2023-04-07T06:33:02.107Z,1017.91
2023-04-07T06:35:28.934Z,1017.67
2023-04-07T06:37:57.109Z,1017.50
2023-04-07T06:40:23.847Z,1017.38
2023-04-07T06:42:50.700Z,1017.36
2023-04-07T06:45:17.402Z,1017.32
2023-04-07T06:47:44.156Z,1017.33
2023-04-07T06:50:11.364Z,1017.26
2023-04-07T06:52:38.163Z,1017.11
2023-04-07T06:55:07.823Z,1016.95
2023-04-07T06:57:34.610Z,1016.76
2023-04-07T07:00:01.498Z,1016.64
2023-04-07T07:02:28.410Z,1016.50
2023-04-07T07:04:55.256Z,1016.37
2023-04-07T07:07:21.981Z,1016.28
2023-04-07T07:09:48.819Z,1016.17
2023-04-07T07:12:17.062Z,1016.11
2023-04-07T07:14:43.875Z,1016.00
2023-04-07T07:17:10.586Z,1015.88
2023-04-07T07:19:37.317Z,1015.77
2023-04-07T07:22:04.224Z,1015.68
2023-04-07T07:24:31.410Z,1015.65
2023-04-07T07:26:58.271Z,1015.62
2023-04-07T07:29:26.478Z,1015.52
2023-04-07T07:31:54.470Z,1015.48
2023-04-07T07:34:21.921Z,1015.46
2023-04-07T07:36:48.685Z,1015.57
2023-04-07T07:39:15.573Z,1015.45
2023-04-07T07:41:42.272Z,1015.40
2023-04-07T07:44:09.019Z,1015.28
2023-04-07T07:46:37.232Z,1015.21
2023-04-07T07:49:04.040Z,1015.18
2023-04-07T07:51:30.909Z,1014.98
2023-04-07T07:53:57.650Z,1014.97
2023-04-07T07:56:24.378Z,1014.87
2023-04-07T07:58:51.231Z,1014.70
2023-04-07T08:01:18.034Z,1014.62
2023-04-07T08:03:46.679Z,1014.45
2023-04-07T08:06:14.002Z,1014.40
2023-04-07T08:08:40.789Z,1014.37
2023-04-07T08:11:07.563Z,1014.41
2023-04-07T08:13:34.324Z,1014.32
2023-04-07T08:16:01.196Z,1014.11
2023-04-07T08:18:28.081Z,1014.06
2023-04-07T08:20:56.216Z,1014.00
2023-04-07T08:23:23.067Z,1013.92
2023-04-07T08:25:49.860Z,1013.89
2023-04-07T08:28:16.699Z,1013.93
2023-04-07T08:30:43.442Z,1013.87
2023-04-07T08:33:10.288Z,1013.82
2023-04-07T08:35:37.088Z,1013.81
2023-04-07T08:38:05.181Z,1013.76
2023-04-07T08:40:41.985Z,1013.68
2023-04-07T08:43:24.550Z,1013.57
2023-04-07T08:49:02.307Z,1013.28
2023-04-07T08:51:44.826Z,1013.27
2023-04-07T08:54:14.598Z,1013.20
2023-04-07T08:56:42.754Z,1013.28
2023-04-07T08:59:12.145Z,1013.54
2023-04-07T09:01:40.061Z,1013.45
2023-04-07T09:04:09.089Z,1013.43
2023-04-07T09:06:36.659Z,1013.26
2023-04-07T09:09:04.171Z,1013.26
2023-04-07T09:11:37.049Z,1013.54
2023-04-07T09:14:04.415Z,1013.42
2023-04-07T09:16:31.703Z,1013.33
2023-04-07T09:18:58.906Z,1013.91
2023-04-07T09:21:25.896Z,1013.58
2023-04-07T09:23:52.878Z,1013.82
2023-04-07T09:26:22.970Z,1013.60
2023-04-07T09:28:54.206Z,1013.54
2023-04-07T09:31:21.631Z,1013.47
2023-04-07T09:33:49.556Z,1013.60
2023-04-07T09:36:16.516Z,1013.41
2023-04-07T09:38:44.784Z,1013.35
2023-04-07T09:41:13.262Z,1013.24
2023-04-07T09:43:41.419Z,1013.08
2023-04-07T09:46:11.915Z,1013.05
2023-04-07T09:48:39.314Z,1013.10
2023-04-07T09:51:08.022Z,1013.50
2023-04-07T09:53:46.632Z,1013.19
2023-04-07T09:56:14.703Z,1013.14
2023-04-07T09:58:41.736Z,1013.20
2023-04-07T10:01:11.134Z,1013.32
2023-04-07T10:03:38.913Z,1013.23
2023-04-07T10:06:07.029Z,1013.28
2023-04-07T10:08:35.769Z,1012.96
2023-04-07T10:11:03.746Z,1012.89
2023-04-07T10:13:30.938Z,1012.93
2023-04-07T10:15:58.717Z,1012.77
2023-04-07T10:18:29.913Z,1013.03
2023-04-07T10:20:57.068Z,1012.67
2023-04-07T10:23:29.157Z,1012.36
2023-04-07T10:25:57.720Z,1012.30
2023-04-07T10:28:26.973Z,1012.27
2023-04-07T10:30:54.922Z,1012.17
2023-04-07T10:33:47.858Z,1012.29
2023-04-07T10:36:15.383Z,1012.17
2023-04-07T10:38:42.213Z,1012.08
2023-04-07T10:41:32.576Z,1011.95
2023-04-07T10:43:59.327Z,1011.92
2023-04-07T10:46:46.142Z,1011.84
2023-04-07T10:49:16.979Z,1011.91
2023-04-07T10:52:05.277Z,1011.79
2023-04-07T10:54:32.016Z,1011.93
2023-04-07T10:57:10.166Z,1011.87
2023-04-07T10:59:38.532Z,1012.00
2023-04-07T11:02:30.881Z,1011.84
2023-04-07T11:04:59.429Z,1011.88
2023-04-07T11:07:48.127Z,1011.86
2023-04-07T11:10:15.457Z,1011.86
2023-04-07T11:12:42.447Z,1011.79
2023-04-07T11:15:20.199Z,1011.92
2023-04-07T11:17:47.128Z,1011.65
2023-04-07T11:20:15.383Z,1011.46
2023-04-07T11:22:42.154Z,1011.33
2023-04-07T11:25:21.570Z,1011.37
2023-04-07T11:27:48.528Z,1011.42
2023-04-07T11:30:16.441Z,1011.37
2023-04-07T11:32:47.125Z,1011.25
2023-04-07T11:35:15.411Z,1011.33
2023-04-07T11:37:42.294Z,1011.70
2023-04-07T11:40:10.241Z,1011.58
2023-04-07T11:42:38.724Z,1011.26
2023-04-07T11:45:08.253Z,1011.18
2023-04-07T11:47:35.945Z,1011.42
2023-04-07T11:50:03.140Z,1011.35
2023-04-07T11:52:41.150Z,1011.22
2023-04-07T11:55:17.359Z,1011.13
2023-04-07T11:57:44.216Z,1011.20
2023-04-07T12:00:12.600Z,1011.05
2023-04-07T12:02:39.508Z,1010.84
2023-04-07T12:05:06.953Z,1010.84
2023-04-07T12:07:35.672Z,1011.09
2023-04-07T12:10:20.230Z,1011.31
2023-04-07T12:12:47.002Z,1011.18
2023-04-07T12:15:32.099Z,1011.13
2023-04-07T12:18:19.154Z,1011.22
2023-04-07T12:20:47.014Z,1010.99
2023-04-07T12:23:15.165Z,1010.86
2023-04-07T12:25:41.901Z,1010.81
2023-04-07T12:28:08.650Z,1010.58
2023-04-07T12:30:36.437Z,1010.60
2023-04-07T12:33:03.370Z,1010.42
2023-04-07T12:35:30.357Z,1010.25
2023-04-07T12:37:57.273Z,1010.25
2023-04-07T12:40:25.398Z,1010.25
2023-04-07T12:42:52.125Z,1010.26
2023-04-07T12:45:18.965Z,1010.16
2023-04-07T12:47:45.735Z,1010.03
2023-04-07T12:50:12.562Z,1009.93
2023-04-07T12:52:39.375Z,1010.03
2023-04-07T12:55:06.426Z,1010.13
2023-04-07T12:57:34.528Z,1010.10
2023-04-07T13:00:01.296Z,1010.08
2023-04-07T13:02:28.330Z,1010.25
2023-04-07T13:04:55.416Z,1010.46
2023-04-07T13:07:22.202Z,1010.66
2023-04-07T13:09:49.026Z,1010.43
2023-04-07T13:12:15.859Z,1010.24
2023-04-07T13:14:57.097Z,1010.27
2023-04-07T13:17:26.791Z,1010.47
2023-04-07T13:19:54.295Z,1010.65
2023-04-07T13:22:22.185Z,1010.68
2023-04-07T13:24:50.136Z,1010.89
2023-04-07T13:27:16.879Z,1011.16
2023-04-07T13:29:44.994Z,1011.17
2023-04-07T13:32:11.830Z,1011.21
2023-04-07T13:34:39.167Z,1011.28
2023-04-07T13:37:06.230Z,1011.37
2023-04-07T13:39:33.165Z,1011.28
2023-04-07T13:42:00.111Z,1011.13
2023-04-07T13:44:27.708Z,1011.31
2023-04-07T13:46:56.641Z,1011.38
2023-04-07T13:49:23.510Z,1011.40
2023-04-07T13:51:50.234Z,1011.41
2023-04-07T13:54:17.105Z,1011.36
2023-04-07T13:56:43.961Z,1011.55
2023-04-07T13:59:10.772Z,1011.71
2023-04-07T14:01:37.613Z,1011.50
2023-04-07T14:04:06.175Z,1011.53
2023-04-07T14:06:33.360Z,1011.44
2023-04-07T14:09:00.133Z,1011.25
2023-04-07T14:11:26.909Z,1010.92
2023-04-07T14:13:55.093Z,1010.72
2023-04-07T14:16:22.055Z,1010.55
2023-04-07T14:18:48.799Z,1010.32
2023-04-07T14:21:17.007Z,1010.20
2023-04-07T14:23:43.778Z,1010.14
2023-04-07T14:26:10.995Z,1010.14
2023-04-07T14:28:38.008Z,1010.30
2023-04-07T14:31:04.999Z,1010.23
2023-04-07T14:33:31.756Z,1010.17
2023-04-07T14:35:58.522Z,1010.35
2023-04-07T14:38:26.722Z,1010.37
2023-04-07T14:40:53.456Z,1010.74
2023-04-07T14:43:20.298Z,1010.90
2023-04-07T14:45:47.147Z,1011.11
2023-04-07T14:48:13.952Z,1011.15
2023-04-07T14:50:40.751Z,1011.21
2023-04-07T14:53:07.530Z,1011.34
2023-04-07T14:55:35.708Z,1011.62
2023-04-07T14:58:02.473Z,1011.66
2023-04-07T15:00:29.220Z,1011.74
2023-04-07T15:02:56.224Z,1011.80
2023-04-07T15:05:23.253Z,1011.86
2023-04-07T15:07:50.043Z,1011.91
2023-04-07T15:10:16.983Z,1011.96
2023-04-07T15:12:47.264Z,1011.90
2023-04-07T15:15:14.280Z,1011.88
2023-04-07T15:17:44.600Z,1011.76
2023-04-07T15:20:11.803Z,1011.82
2023-04-07T15:22:38.569Z,1011.73
2023-04-07T15:25:05.826Z,1011.79
2023-04-07T15:27:32.591Z,1011.87
2023-04-07T15:30:00.854Z,1011.90
2023-04-07T15:32:27.702Z,1011.90
2023-04-07T15:34:54.473Z,1011.94
2023-04-07T15:37:22.237Z,1011.92
2023-04-07T15:39:50.682Z,1012.03
2023-04-07T15:42:17.512Z,1012.15
2023-04-07T15:44:44.222Z,1012.17
2023-04-07T15:47:12.357Z,1012.26
2023-04-07T15:49:39.128Z,1012.25
2023-04-07T15:52:06.036Z,1012.34
2023-04-07T15:54:32.996Z,1012.35
2023-04-07T15:56:59.778Z,1012.45
2023-04-07T15:59:26.681Z,1012.43
2023-04-07T16:01:53.688Z,1012.49
2023-04-07T16:04:21.899Z,1012.43
2023-04-07T16:06:48.622Z,1012.42
2023-04-07T16:09:15.443Z,1012.62
2023-04-07T16:11:42.177Z,1012.58
2023-04-07T16:14:09.392Z,1012.62
2023-04-07T16:16:36.249Z,1012.65
2023-04-07T16:19:03.097Z,1012.65
2023-04-07T16:21:31.239Z,1012.86
2023-04-07T16:23:58.062Z,1012.76
2023-04-07T16:26:24.844Z,1012.71
2023-04-07T16:28:51.598Z,1012.72
2023-04-07T16:31:18.377Z,1012.74
2023-04-07T16:33:45.181Z,1012.69
2023-04-07T16:36:11.978Z,1012.65
2023-04-07T16:38:40.129Z,1012.81
2023-04-07T16:41:07.314Z,1012.84
2023-04-07T16:43:34.174Z,1012.82
2023-04-07T16:46:01.027Z,1012.94
2023-04-07T16:48:28.493Z,1012.92
2023-04-07T16:50:55.246Z,1012.92
2023-04-07T16:53:21.986Z,1013.06
2023-04-07T16:55:50.241Z,1013.14
2023-04-07T16:58:16.951Z,1013.14
2023-04-07T17:00:43.735Z,1013.23
2023-04-07T17:03:10.639Z,1013.32
2023-04-07T17:05:37.496Z,1013.35
2023-04-07T17:08:04.586Z,1013.50
2023-04-07T17:10:31.398Z,1013.57
2023-04-07T17:12:59.610Z,1013.58
2023-04-07T17:15:26.550Z,1013.73
2023-04-07T17:17:53.423Z,1013.82
2023-04-07T17:20:20.296Z,1013.85
2023-04-07T17:22:47.050Z,1013.97
2023-04-07T17:25:13.908Z,1014.05
2023-04-07T17:27:40.729Z,1014.09
2023-04-07T17:30:10.007Z,1014.21
2023-04-07T17:32:36.781Z,1014.19
2023-04-07T17:35:03.806Z,1014.23
2023-04-07T17:37:30.576Z,1014.32
2023-04-07T17:39:57.417Z,1014.32
2023-04-07T17:42:24.256Z,1014.34
2023-04-07T17:44:51.581Z,1014.36
2023-04-07T17:47:19.703Z,1014.49
2023-04-07T17:49:46.512Z,1014.46
2023-04-07T17:52:13.270Z,1014.48
2023-04-07T17:54:39.981Z,1014.56
2023-04-07T17:57:06.718Z,1014.64
2023-04-07T17:59:33.645Z,1014.70
2023-04-07T18:02:00.563Z,1014.76
2023-04-07T18:04:30.132Z,1014.73
2023-04-07T18:06:56.914Z,1014.89
2023-04-07T18:09:23.827Z,1015.02
2023-04-07T18:11:50.542Z,1015.17
2023-04-07T18:14:17.288Z,1015.12
2023-04-07T18:16:44.022Z,1015.25
2023-04-07T18:19:10.777Z,1015.29
2023-04-07T18:21:38.856Z,1015.36
2023-04-07T18:24:05.924Z,1015.49
2023-04-07T18:26:32.752Z,1015.59
2023-04-07T18:28:59.566Z,1015.70
2023-04-07T18:31:26.370Z,1015.75
2023-04-07T18:33:53.173Z,1015.76
2023-04-07T18:36:20.099Z,1015.84
2023-04-07T18:38:48.228Z,1015.83
2023-04-07T18:41:15.035Z,1015.78
2023-04-07T18:43:41.898Z,1015.87
2023-04-07T18:46:08.642Z,1015.90
2023-04-07T18:48:35.415Z,1015.91
2023-04-07T18:51:03.076Z,1015.98
2023-04-07T18:53:29.813Z,1016.03
2023-04-07T18:55:58.795Z,1016.11
2023-04-07T18:58:25.569Z,1016.23
2023-04-07T19:00:52.325Z,1016.15
2023-04-07T19:03:19.326Z,1016.20
2023-04-07T19:05:47.751Z,1016.23
2023-04-07T19:08:14.738Z,1016.42
2023-04-07T19:10:41.686Z,1016.44
2023-04-07T19:13:09.800Z,1016.50
2023-04-07T19:15:36.646Z,1016.61
2023-04-07T19:18:03.927Z,1016.67
2023-04-07T19:20:30.776Z,1016.77
2023-04-07T19:22:57.511Z,1016.76
2023-04-07T19:25:24.642Z,1016.82
2023-04-07T19:27:51.760Z,1016.89
2023-04-07T19:30:20.225Z,1016.95
2023-04-07T19:32:47.202Z,1017.06
2023-04-07T19:35:13.993Z,1017.02
2023-04-07T19:37:40.769Z,1017.04
2023-04-07T19:40:08.447Z,1017.10
2023-04-07T19:42:35.776Z,1017.17
2023-04-07T19:45:02.762Z,1017.16
2023-04-07T19:47:30.959Z,1017.16
2023-04-07T19:49:57.707Z,1017.29
2023-04-07T19:52:24.554Z,1017.27
2023-04-07T19:54:51.379Z,1017.24
2023-04-07T19:57:18.099Z,1017.27
2023-04-07T19:59:44.858Z,1017.29
2023-04-07T20:02:11.683Z,1017.40
2023-04-07T20:04:39.972Z,1017.39
2023-04-07T20:07:06.734Z,1017.37
2023-04-07T20:09:33.531Z,1017.46
2023-04-07T20:12:00.302Z,1017.56
2023-04-07T20:14:27.129Z,1017.57
2023-04-07T20:16:53.949Z,1017.59
2023-04-07T20:19:20.977Z,1017.59
2023-04-07T20:21:49.148Z,1017.61
2023-04-07T20:24:16.136Z,1017.57
2023-04-07T20:26:42.864Z,1017.65
2023-04-07T20:29:09.576Z,1017.65
2023-04-07T20:31:36.412Z,1017.64
2023-04-07T20:34:03.135Z,1017.67
2023-04-07T20:36:29.842Z,1017.75
2023-04-07T20:38:58.103Z,1017.80
2023-04-07T20:41:24.816Z,1017.89
2023-04-07T20:43:51.656Z,1017.80
2023-04-07T20:46:18.507Z,1017.87
2023-04-07T20:48:45.241Z,1017.97
2023-04-07T20:51:12.011Z,1017.93
2023-04-07T20:53:38.740Z,1018.00
2023-04-07T20:56:07.364Z,1017.92
2023-04-07T20:58:34.244Z,1017.95
2023-04-07T21:01:01.217Z,1017.99
2023-04-07T21:03:28.895Z,1018.05
2023-04-07T21:05:55.866Z,1018.07
2023-04-07T21:08:22.797Z,1018.06
2023-04-07T21:10:50.224Z,1018.00
2023-04-07T21:13:18.346Z,1018.05
2023-04-07T21:15:45.330Z,1018.02
2023-04-07T21:18:12.318Z,1018.05
2023-04-07T21:20:40.058Z,1017.96
2023-04-07T21:23:07.740Z,1017.96
2023-04-07T21:25:36.728Z,1018.06
2023-04-07T21:28:03.471Z,1018.06
2023-04-07T21:30:31.611Z,1018.11
2023-04-07T21:32:58.408Z,1018.14
2023-04-07T21:35:27.024Z,1018.08
2023-04-07T21:37:53.858Z,1018.12
2023-04-07T21:40:20.678Z,1018.16
2023-04-07T21:42:47.482Z,1018.15
2023-04-07T21:45:14.268Z,1018.20
2023-04-07T21:47:42.471Z,1018.26
2023-04-07T21:50:10.188Z,1018.34
2023-04-07T21:52:37.020Z,1018.31
2023-04-07T21:55:04.165Z,1018.32
2023-04-07T21:57:30.935Z,1018.19
2023-04-07T21:59:57.655Z,1018.23
2023-04-07T22:02:24.668Z,1018.20
2023-04-07T22:04:53.014Z,1018.20
2023-04-07T22:07:19.808Z,1018.22
2023-04-07T22:09:46.554Z,1018.20
2023-04-07T22:12:13.393Z,1018.22
2023-04-07T22:14:40.214Z,1018.29
2023-04-07T22:17:07.053Z,1018.32
2023-04-07T22:19:33.913Z,1018.35
2023-04-07T22:22:02.050Z,1018.29
2023-04-07T22:24:28.787Z,1018.32
2023-04-07T22:26:55.509Z,1018.29
2023-04-07T22:29:22.289Z,1018.29
2023-04-07T22:31:49.097Z,1018.28
2023-04-07T22:34:15.904Z,1018.32
2023-04-07T22:36:42.607Z,1018.35
2023-04-07T22:39:10.703Z,1018.35
2023-04-07T22:41:37.473Z,1018.43
2023-04-07T22:44:05.166Z,1018.47
2023-04-07T22:46:32.126Z,1018.45
2023-04-07T22:48:58.993Z,1018.48
2023-04-07T22:51:25.908Z,1018.52
2023-04-07T22:53:52.712Z,1018.46
2023-04-07T22:56:21.034Z,1018.48
2023-04-07T22:58:48.011Z,1018.52
2023-04-07T23:01:15.330Z,1018.57
2023-04-07T23:03:42.365Z,1018.58
2023-04-07T23:06:09.213Z,1018.61
2023-04-07T23:08:36.408Z,1018.58
2023-04-07T23:11:03.130Z,1018.59
2023-04-07T23:13:31.270Z,1018.69
2023-04-07T23:15:58.005Z,1018.76
2023-04-07T23:18:24.789Z,1018.78
2023-04-07T23:20:51.963Z,1018.86
2023-04-07T23:23:18.687Z,1018.81
2023-04-07T23:25:45.434Z,1018.83
2023-04-07T23:28:12.143Z,1018.91
2023-04-07T23:30:40.271Z,1018.86
2023-04-07T23:33:07.013Z,1018.99
2023-04-07T23:35:33.785Z,1018.95
2023-04-07T23:38:00.978Z,1018.98
2023-04-07T23:40:27.710Z,1019.02
2023-04-07T23:42:54.489Z,1018.97
2023-04-07T23:45:21.220Z,1018.95
2023-04-07T23:47:49.392Z,1018.94
2023-04-07T23:50:16.332Z,1018.96
2023-04-07T23:52:43.097Z,1018.93
2023-04-07T23:55:10.126Z,1018.98
2023-04-07T23:57:36.856Z,1018.93
